createdAt,value
2023-12-29T00:02:05.390Z,7.92
2023-12-29T00:07:06.874Z,7.87
2023-12-29T00:12:08.954Z,7.80
2023-12-29T00:17:10.441Z,7.77
2023-12-29T00:22:11.987Z,7.82
2023-12-29T00:27:14.990Z,7.84
2023-12-29T00:32:16.865Z,7.86
2023-12-29T00:37:18.358Z,7.85
2023-12-29T00:42:19.851Z,7.80
2023-12-29T00:47:21.366Z,7.76
2023-12-29T00:52:22.918Z,7.78
2023-12-29T00:57:24.345Z,7.81
2023-12-29T01:02:25.791Z,7.94
2023-12-29T01:07:27.247Z,7.94
2023-12-29T01:12:28.704Z,7.85
2023-12-29T01:17:30.201Z,7.77
2023-12-29T01:22:31.685Z,7.74
2023-12-29T01:27:33.232Z,7.70
2023-12-29T01:32:37.234Z,7.68
2023-12-29T01:37:38.788Z,7.65
2023-12-29T01:42:40.367Z,7.73
2023-12-29T01:47:42.511Z,7.75
2023-12-29T01:52:45.352Z,7.84
2023-12-29T01:57:48.125Z,7.91
2023-12-29T02:02:50.325Z,8.01
2023-12-29T02:07:52.857Z,8.08
2023-12-29T02:12:54.343Z,8.14
2023-12-29T02:18:05.512Z,8.16
2023-12-29T02:23:07.238Z,8.15
2023-12-29T02:28:21.156Z,8.16
2023-12-29T02:33:24.958Z,8.18
2023-12-29T02:38:27.182Z,8.15
2023-12-29T02:43:28.657Z,8.23
2023-12-29T02:48:30.252Z,8.28
2023-12-29T02:53:31.727Z,8.29
2023-12-29T02:58:33.224Z,8.25
2023-12-29T03:03:34.806Z,8.23
2023-12-29T03:08:36.369Z,8.13
2023-12-29T03:13:37.843Z,8.00
2023-12-29T03:18:39.473Z,7.89
2023-12-29T03:23:41.032Z,7.80
2023-12-29T03:28:42.468Z,7.77
2023-12-29T03:33:44.602Z,7.83
2023-12-29T03:38:46.459Z,7.83
2023-12-29T03:43:47.922Z,7.86
2023-12-29T03:48:50.211Z,7.86
2023-12-29T03:53:51.843Z,7.81
2023-12-29T03:58:53.381Z,7.66
2023-12-29T04:03:54.910Z,7.36
2023-12-29T04:08:56.437Z,6.75
2023-12-29T04:13:57.899Z,6.38
2023-12-29T04:18:59.548Z,6.17
2023-12-29T04:24:01.043Z,6.04
2023-12-29T04:29:02.812Z,5.94
2023-12-29T04:34:04.334Z,5.92
2023-12-29T04:39:05.847Z,5.87
2023-12-29T04:44:07.321Z,5.87
2023-12-29T04:49:08.981Z,5.84
2023-12-29T04:54:10.949Z,5.91
2023-12-29T04:59:12.393Z,5.84
2023-12-29T05:04:13.915Z,5.76
2023-12-29T05:09:15.455Z,5.72
2023-12-29T05:14:17.034Z,5.71
2023-12-29T05:19:18.679Z,5.66
2023-12-29T05:24:20.414Z,5.63
2023-12-29T05:29:21.954Z,5.69
2023-12-29T05:34:23.510Z,5.75
2023-12-29T05:39:25.058Z,5.81
2023-12-29T05:44:26.632Z,5.78
2023-12-29T05:49:28.259Z,5.74
2023-12-29T05:54:29.773Z,5.73
2023-12-29T05:59:31.247Z,5.76
2023-12-29T06:04:32.771Z,5.75
2023-12-29T06:09:34.291Z,5.88
2023-12-29T06:14:37.613Z,5.93
2023-12-29T06:19:39.188Z,5.92
2023-12-29T06:24:43.838Z,5.92
2023-12-29T06:29:45.369Z,5.95
2023-12-29T06:34:46.897Z,6.00
2023-12-29T06:39:48.552Z,6.11
2023-12-29T06:44:50.082Z,6.23
2023-12-29T06:49:51.627Z,6.34
2023-12-29T06:54:53.129Z,6.41
2023-12-29T06:59:54.637Z,6.46
2023-12-29T07:04:56.153Z,6.57
2023-12-29T07:09:57.688Z,6.67
2023-12-29T07:14:59.239Z,6.75
2023-12-29T07:20:01.269Z,6.74
2023-12-29T07:25:03.291Z,6.84
2023-12-29T07:30:05.365Z,6.94
2023-12-29T07:35:07.251Z,6.95
2023-12-29T07:40:11.739Z,7.08
2023-12-29T07:45:13.284Z,7.08
2023-12-29T07:50:14.785Z,7.22
2023-12-29T07:55:16.426Z,7.26
2023-12-29T08:00:18.323Z,7.27
2023-12-29T08:05:19.784Z,7.30
2023-12-29T08:10:21.452Z,7.24
2023-12-29T08:15:22.914Z,7.20
2023-12-29T08:20:24.368Z,7.15
2023-12-29T08:25:25.834Z,7.22
2023-12-29T08:30:27.281Z,7.33
2023-12-29T08:35:28.715Z,7.41
2023-12-29T08:40:30.434Z,7.46
2023-12-29T08:45:31.970Z,7.43
2023-12-29T08:50:33.436Z,7.50
2023-12-29T08:55:34.893Z,7.41
2023-12-29T09:00:36.574Z,7.39
2023-12-29T09:05:38.210Z,7.34
2023-12-29T09:10:39.678Z,7.27
2023-12-29T09:15:41.157Z,7.04
2023-12-29T09:20:42.789Z,6.81
2023-12-29T09:25:44.347Z,6.80
2023-12-29T09:30:46.044Z,6.85
2023-12-29T09:35:47.562Z,6.81
2023-12-29T09:40:49.411Z,6.79
2023-12-29T09:45:53.138Z,6.99
2023-12-29T09:50:55.729Z,7.25
2023-12-29T09:56:00.174Z,7.49
2023-12-29T10:01:05.088Z,7.58
2023-12-29T10:06:08.074Z,7.45
2023-12-29T10:11:11.515Z,7.36
2023-12-29T10:16:28.886Z,7.27
2023-12-29T10:21:58.234Z,7.27
2023-12-29T10:26:59.835Z,7.39
2023-12-29T10:32:01.398Z,7.47
2023-12-29T10:37:03.468Z,7.36
2023-12-29T10:42:09.273Z,7.27
2023-12-29T10:47:12.216Z,7.39
2023-12-29T10:52:15.020Z,7.40
2023-12-29T10:57:16.558Z,7.22
2023-12-29T11:02:18.080Z,7.20
2023-12-29T11:07:41.637Z,7.25
2023-12-29T11:12:43.836Z,7.31
2023-12-29T11:17:45.393Z,7.39
2023-12-29T11:22:47.884Z,7.47
2023-12-29T11:27:50.105Z,7.66
2023-12-29T11:33:05.076Z,7.92
2023-12-29T11:38:15.927Z,7.92
2023-12-29T11:43:19.291Z,7.91
2023-12-29T11:48:55.237Z,7.86
2023-12-29T11:53:57.214Z,7.78
2023-12-29T11:59:16.015Z,7.77
2023-12-29T12:04:39.608Z,7.93
2023-12-29T12:09:41.150Z,8.21
2023-12-29T12:14:48.658Z,8.17
2023-12-29T12:19:50.528Z,8.41
2023-12-29T12:25:01.424Z,8.42
2023-12-29T12:30:03.357Z,8.41
2023-12-29T12:35:16.011Z,8.41
2023-12-29T12:40:27.904Z,8.40
2023-12-29T12:45:30.104Z,8.33
2023-12-29T12:50:31.714Z,8.38
2023-12-29T12:55:35.751Z,8.34
2023-12-29T13:00:37.566Z,8.21
2023-12-29T13:05:39.779Z,8.13
2023-12-29T13:10:42.457Z,8.11
2023-12-29T13:15:51.011Z,8.14
2023-12-29T13:20:52.544Z,8.15
2023-12-29T13:26:07.974Z,8.12
2023-12-29T13:31:14.101Z,8.09
2023-12-29T13:36:41.212Z,8.06
2023-12-29T13:41:44.218Z,7.93
2023-12-29T13:46:46.006Z,7.83
2023-12-29T13:51:47.742Z,7.70
2023-12-29T13:56:53.357Z,7.66
2023-12-29T14:01:55.032Z,7.71
2023-12-29T14:07:02.086Z,7.78
2023-12-29T14:12:03.939Z,7.84
2023-12-29T14:17:05.508Z,7.78
2023-12-29T14:22:07.047Z,7.62
2023-12-29T14:27:08.844Z,7.54
2023-12-29T14:32:10.692Z,7.50
2023-12-29T14:37:12.196Z,7.42
2023-12-29T14:42:13.638Z,7.35
2023-12-29T14:47:17.544Z,7.32
2023-12-29T14:52:19.101Z,7.37
2023-12-29T14:57:22.098Z,7.39
2023-12-29T15:02:23.669Z,7.38
2023-12-29T15:07:25.173Z,7.30
2023-12-29T15:12:26.641Z,7.21
2023-12-29T15:17:28.116Z,7.10
2023-12-29T15:22:29.591Z,6.98
2023-12-29T15:27:31.273Z,6.97
2023-12-29T15:32:32.804Z,7.01
2023-12-29T15:37:34.774Z,7.01
2023-12-29T15:42:36.258Z,7.01
2023-12-29T15:47:37.784Z,6.91
2023-12-29T15:52:39.297Z,6.87
2023-12-29T15:57:42.778Z,6.81
2023-12-29T16:02:44.422Z,6.76
2023-12-29T16:07:45.880Z,6.62
2023-12-29T16:12:47.345Z,6.66
2023-12-29T16:17:48.808Z,6.54
2023-12-29T16:22:50.330Z,6.56
2023-12-29T16:27:53.034Z,6.69
2023-12-29T16:32:54.688Z,6.64
2023-12-29T16:37:56.267Z,6.65
2023-12-29T16:42:57.824Z,6.63
2023-12-29T16:47:59.512Z,6.55
2023-12-29T16:53:01.224Z,6.58
2023-12-29T16:58:03.004Z,6.55
2023-12-29T17:03:05.161Z,6.50
2023-12-29T17:08:07.278Z,6.46
2023-12-29T17:13:08.895Z,6.45
2023-12-29T17:18:10.602Z,6.43
2023-12-29T17:23:12.107Z,6.43
2023-12-29T17:28:13.696Z,6.53
2023-12-29T17:33:15.314Z,6.58
2023-12-29T17:38:16.943Z,6.57
2023-12-29T17:43:18.491Z,6.57
2023-12-29T17:48:20.144Z,6.58
2023-12-29T17:53:21.637Z,6.57
2023-12-29T17:58:23.145Z,6.55
2023-12-29T18:03:24.625Z,6.55
2023-12-29T18:08:26.128Z,6.53
2023-12-29T18:13:27.606Z,6.46
2023-12-29T18:18:29.271Z,6.37
2023-12-29T18:23:30.824Z,6.37
2023-12-29T18:28:32.324Z,6.30
2023-12-29T18:33:33.989Z,6.30
2023-12-29T18:38:35.968Z,6.34
2023-12-29T18:43:37.708Z,6.35
2023-12-29T18:48:39.395Z,6.37
2023-12-29T18:53:40.964Z,6.40
2023-12-29T18:58:42.487Z,6.37
2023-12-29T19:03:44.436Z,6.34
2023-12-29T19:08:45.952Z,6.26
2023-12-29T19:13:47.410Z,6.27
2023-12-29T19:18:49.784Z,6.28
2023-12-29T19:23:51.319Z,6.28
2023-12-29T19:28:53.831Z,6.41
2023-12-29T19:33:55.563Z,6.40
2023-12-29T19:38:57.268Z,6.41
2023-12-29T19:43:58.719Z,6.38
2023-12-29T19:49:00.654Z,6.34
2023-12-29T19:54:02.437Z,6.34
2023-12-29T19:59:03.902Z,6.36
2023-12-29T20:04:05.507Z,6.39
2023-12-29T20:09:07.167Z,6.35
2023-12-29T20:14:09.803Z,6.36
2023-12-29T20:19:11.498Z,6.39
2023-12-29T20:24:13.239Z,6.36
2023-12-29T20:29:14.782Z,6.33
2023-12-29T20:34:16.338Z,6.27
2023-12-29T20:39:17.884Z,6.26
2023-12-29T20:44:19.381Z,6.23
2023-12-29T20:49:21.077Z,6.21
2023-12-29T20:54:22.639Z,6.10
2023-12-29T20:59:24.116Z,6.02
2023-12-29T21:04:25.619Z,5.88
2023-12-29T21:09:27.126Z,5.81
2023-12-29T21:14:28.588Z,5.73
2023-12-29T21:19:30.113Z,5.66
2023-12-29T21:24:31.585Z,5.63
2023-12-29T21:29:33.045Z,5.59
2023-12-29T21:34:34.554Z,5.53
2023-12-29T21:39:36.068Z,5.46
2023-12-29T21:44:37.516Z,5.40
2023-12-29T21:49:39.060Z,5.33
2023-12-29T21:54:42.625Z,5.27
2023-12-29T21:59:44.073Z,5.26
2023-12-29T22:04:48.960Z,5.23
2023-12-29T22:09:50.573Z,5.20
2023-12-29T22:14:52.030Z,5.25
2023-12-29T22:19:53.512Z,5.29
2023-12-29T22:24:55.033Z,5.27
2023-12-29T22:29:56.490Z,5.26
2023-12-29T22:34:58.079Z,5.29
2023-12-29T22:39:59.752Z,5.33
2023-12-29T22:45:01.562Z,5.31
2023-12-29T22:50:03.202Z,5.19
2023-12-29T22:55:05.128Z,5.21
2023-12-29T23:00:07.695Z,5.18
2023-12-29T23:05:09.619Z,5.17
2023-12-29T23:10:11.211Z,5.17
2023-12-29T23:15:12.756Z,5.25
2023-12-29T23:20:14.477Z,5.29
2023-12-29T23:25:15.981Z,5.29
2023-12-29T23:30:17.781Z,5.29
2023-12-29T23:35:23.961Z,5.29
2023-12-29T23:40:26.605Z,5.31
2023-12-29T23:45:28.083Z,5.22
2023-12-29T23:50:29.579Z,5.13
2023-12-29T23:55:31.111Z,5.09
